createdAt,value
2018-04-11T00:00:26.824Z,0
2018-04-11T00:01:27.395Z,0
2018-04-11T00:02:27.968Z,0
2018-04-11T00:03:28.542Z,0
2018-04-11T00:04:29.116Z,0
2018-04-11T00:05:29.690Z,0
2018-04-11T00:06:30.266Z,0
2018-04-11T00:07:30.840Z,0
2018-04-11T00:08:31.417Z,0
2018-04-11T00:09:31.990Z,0
2018-04-11T00:10:32.565Z,0
2018-04-11T00:11:33.138Z,0
2018-04-11T00:12:33.713Z,0
2018-04-11T00:13:34.285Z,0
2018-04-11T00:14:34.858Z,0
2018-04-11T00:15:35.432Z,0
2018-04-11T00:16:36.006Z,0
2018-04-11T00:17:36.581Z,0
2018-04-11T00:18:37.155Z,0
2018-04-11T00:19:37.740Z,0
2018-04-11T00:20:38.314Z,0
2018-04-11T00:21:38.887Z,0
2018-04-11T00:22:39.461Z,0
2018-04-11T00:23:40.036Z,0
2018-04-11T00:24:40.612Z,0
2018-04-11T00:25:41.186Z,0
2018-04-11T00:26:41.761Z,0
2018-04-11T00:27:42.333Z,0
2018-04-11T00:28:42.912Z,0
2018-04-11T00:29:43.491Z,0
2018-04-11T00:30:44.065Z,0
2018-04-11T00:31:44.640Z,0
2018-04-11T00:32:45.212Z,0
2018-04-11T00:33:45.785Z,0
2018-04-11T00:34:46.357Z,0
2018-04-11T00:35:46.930Z,0
2018-04-11T00:36:47.504Z,0
2018-04-11T00:37:48.078Z,0
2018-04-11T00:38:48.654Z,0
2018-04-11T00:39:49.227Z,0
2018-04-11T00:40:49.801Z,0
2018-04-11T00:41:50.373Z,0
2018-04-11T00:42:50.950Z,0
2018-04-11T00:43:51.533Z,0
2018-04-11T00:44:52.108Z,0
2018-04-11T00:45:52.683Z,0
2018-04-11T00:46:53.255Z,0
2018-04-11T00:47:53.830Z,0
2018-04-11T00:48:54.403Z,0
2018-04-11T00:49:54.976Z,0
2018-04-11T00:50:55.549Z,0
2018-04-11T00:51:56.124Z,0
2018-04-11T00:52:56.696Z,0
2018-04-11T00:53:57.271Z,0
2018-04-11T00:54:57.847Z,0
2018-04-11T00:55:58.420Z,0
2018-04-11T00:56:58.995Z,0
2018-04-11T00:57:59.572Z,0
2018-04-11T00:59:00.143Z,0
2018-04-11T01:00:00.714Z,0
2018-04-11T01:01:01.288Z,0
2018-04-11T01:02:01.860Z,0
2018-04-11T01:03:02.433Z,0
2018-04-11T01:04:03.008Z,0
2018-04-11T01:05:03.582Z,0
2018-04-11T01:06:04.156Z,0
2018-04-11T01:07:04.744Z,0
2018-04-11T01:08:05.316Z,0
2018-04-11T01:09:05.891Z,0
2018-04-11T01:10:06.507Z,0
2018-04-11T01:11:07.039Z,0
2018-04-11T01:12:07.612Z,0
2018-04-11T01:13:08.184Z,0
2018-04-11T01:14:08.758Z,0
2018-04-11T01:15:09.334Z,0
2018-04-11T01:16:09.904Z,0
2018-04-11T01:17:10.476Z,0
2018-04-11T01:18:11.049Z,0
2018-04-11T01:19:11.623Z,0
2018-04-11T01:20:12.198Z,0
2018-04-11T01:21:12.772Z,0
2018-04-11T01:22:13.393Z,0
2018-04-11T01:23:13.921Z,0
2018-04-11T01:24:14.495Z,0
2018-04-11T01:25:15.068Z,0
2018-04-11T01:26:15.642Z,0
2018-04-11T01:27:16.226Z,0
2018-04-11T01:28:16.799Z,0
2018-04-11T01:29:17.372Z,0
2018-04-11T01:30:17.945Z,0
2018-04-11T01:31:18.518Z,0
2018-04-11T01:32:19.091Z,0
2018-04-11T01:33:19.676Z,0
2018-04-11T01:34:20.262Z,0
2018-04-11T01:35:20.839Z,0
2018-04-11T01:36:21.411Z,0
2018-04-11T01:37:21.985Z,0
2018-04-11T01:38:22.558Z,0
2018-04-11T01:39:23.132Z,0
2018-04-11T01:40:23.704Z,0
2018-04-11T01:41:24.277Z,0
2018-04-11T01:42:24.849Z,0
2018-04-11T01:43:25.422Z,0
2018-04-11T01:44:25.996Z,0
2018-04-11T01:45:26.569Z,0
2018-04-11T01:46:27.145Z,0
2018-04-11T01:47:27.719Z,0
2018-04-11T01:48:28.293Z,0
2018-04-11T01:49:28.866Z,0
2018-04-11T01:50:29.440Z,0
2018-04-11T01:51:30.016Z,0
2018-04-11T01:52:30.585Z,0
2018-04-11T01:53:31.157Z,0
2018-04-11T01:54:31.732Z,0
2018-04-11T01:55:32.303Z,0
2018-04-11T01:56:32.888Z,0
2018-04-11T01:57:33.460Z,0
2018-04-11T01:58:34.033Z,0
2018-04-11T01:59:34.607Z,0
2018-04-11T02:00:35.179Z,0
2018-04-11T02:01:35.764Z,0
2018-04-11T02:02:36.342Z,0
2018-04-11T02:03:36.912Z,0
2018-04-11T02:04:37.485Z,0
2018-04-11T02:05:38.057Z,0
2018-04-11T02:06:38.631Z,0
2018-04-11T02:07:39.216Z,0
2018-04-11T02:08:39.789Z,0
2018-04-11T02:09:40.371Z,0
2018-04-11T02:10:40.936Z,0
2018-04-11T02:11:41.506Z,0
2018-04-11T02:12:42.079Z,0
2018-04-11T02:13:42.650Z,0
2018-04-11T02:14:43.224Z,0
2018-04-11T02:15:43.797Z,0
2018-04-11T02:16:44.381Z,0
2018-04-11T02:17:44.953Z,0
2018-04-11T02:18:45.532Z,0
2018-04-11T02:19:46.098Z,0
2018-04-11T02:20:46.669Z,0
2018-04-11T02:21:47.242Z,0
2018-04-11T02:22:47.815Z,0
2018-04-11T02:23:48.397Z,0
2018-04-11T02:24:48.970Z,0
2018-04-11T02:25:49.545Z,0
2018-04-11T02:26:50.119Z,0
2018-04-11T02:27:50.690Z,0
2018-04-11T02:28:51.263Z,0
2018-04-11T02:29:51.834Z,0
2018-04-11T02:30:52.408Z,0
2018-04-11T02:31:52.981Z,0
2018-04-11T02:32:53.555Z,0
2018-04-11T02:33:54.124Z,0
2018-04-11T02:34:54.696Z,0
2018-04-11T02:35:55.269Z,0
2018-04-11T02:36:55.843Z,0
2018-04-11T02:37:56.416Z,0
2018-04-11T02:38:56.991Z,0
2018-04-11T02:39:57.572Z,0
2018-04-11T02:40:58.145Z,0
2018-04-11T02:41:58.728Z,0
2018-04-11T02:42:59.312Z,0
2018-04-11T02:43:59.891Z,0
2018-04-11T02:45:00.461Z,0
2018-04-11T02:46:01.033Z,0
2018-04-11T02:47:01.616Z,0
2018-04-11T02:48:02.191Z,0
2018-04-11T02:49:02.776Z,0
2018-04-11T02:50:03.358Z,0
2018-04-11T02:51:03.931Z,0
2018-04-11T02:52:04.519Z,0
2018-04-11T02:53:05.101Z,0
2018-04-11T02:54:05.672Z,0
2018-04-11T02:55:06.251Z,0
2018-04-11T02:56:06.824Z,0
2018-04-11T02:57:07.391Z,0
2018-04-11T02:58:07.964Z,0
2018-04-11T02:59:08.538Z,0
2018-04-11T03:00:09.110Z,0
2018-04-11T03:01:09.684Z,0
2018-04-11T03:02:10.255Z,0
2018-04-11T03:03:10.827Z,0
2018-04-11T03:04:11.399Z,0
2018-04-11T03:05:11.973Z,0
2018-04-11T03:06:12.544Z,0
2018-04-11T03:07:13.116Z,0
2018-04-11T03:08:13.687Z,0
2018-04-11T03:09:14.259Z,0
2018-04-11T03:10:14.830Z,0
2018-04-11T03:11:15.414Z,0
2018-04-11T03:12:15.990Z,0
2018-04-11T03:13:16.558Z,0
2018-04-11T03:14:17.129Z,0
2018-04-11T03:15:17.701Z,0
2018-04-11T03:16:18.273Z,0
2018-04-11T03:17:18.845Z,0
2018-04-11T03:18:19.422Z,0
2018-04-11T03:19:19.993Z,0
2018-04-11T03:20:20.565Z,0
2018-04-11T03:21:21.138Z,0
2018-04-11T03:22:21.709Z,0
2018-04-11T03:23:22.280Z,0
2018-04-11T03:24:22.851Z,0
2018-04-11T03:25:23.424Z,0
2018-04-11T03:26:23.995Z,0
2018-04-11T03:27:24.566Z,0
2018-04-11T03:28:25.143Z,0
2018-04-11T03:29:25.709Z,0
2018-04-11T03:30:26.293Z,0
2018-04-11T03:31:26.880Z,0
2018-04-11T03:32:27.448Z,0
2018-04-11T03:33:28.089Z,0
2018-04-11T03:34:28.593Z,0
2018-04-11T03:35:29.166Z,0
2018-04-11T03:36:29.738Z,0
2018-04-11T03:37:30.311Z,0
2018-04-11T03:38:30.882Z,0
2018-04-11T03:39:31.456Z,0
2018-04-11T03:40:32.025Z,0
2018-04-11T03:41:32.597Z,0
2018-04-11T03:42:33.168Z,0
2018-04-11T03:43:33.752Z,0
2018-04-11T03:44:34.324Z,0
2018-04-11T03:45:34.895Z,0
2018-04-11T03:46:35.466Z,0
2018-04-11T03:47:36.041Z,0
2018-04-11T03:48:36.613Z,0
2018-04-11T03:49:37.191Z,0
2018-04-11T03:50:37.761Z,0
2018-04-11T03:51:38.334Z,0
2018-04-11T03:52:38.904Z,0
2018-04-11T03:53:39.476Z,0
2018-04-11T03:54:40.047Z,0
2018-04-11T03:55:40.617Z,0
2018-04-11T03:56:41.188Z,0
2018-04-11T03:57:41.760Z,0
2018-04-11T03:58:42.330Z,0
2018-04-11T03:59:42.901Z,0
2018-04-11T04:00:43.475Z,0
2018-04-11T04:01:44.088Z,0
2018-04-11T04:02:44.618Z,0
2018-04-11T04:03:45.199Z,0
2018-04-11T04:04:45.770Z,0
2018-04-11T04:05:46.341Z,0
2018-04-11T04:06:46.913Z,0
2018-04-11T04:07:47.510Z,0
2018-04-11T04:08:48.063Z,0
2018-04-11T04:09:48.631Z,0
2018-04-11T04:10:49.201Z,0
2018-04-11T04:11:49.774Z,0
2018-04-11T04:12:50.344Z,0
2018-04-11T04:13:50.917Z,0
2018-04-11T04:14:51.487Z,0
2018-04-11T04:15:52.058Z,0
2018-04-11T04:16:52.629Z,0
2018-04-11T04:17:53.200Z,0
2018-04-11T04:18:53.771Z,0
2018-04-11T04:19:54.342Z,0
2018-04-11T04:20:54.919Z,0
2018-04-11T04:21:55.487Z,0
2018-04-11T04:22:56.060Z,0
2018-04-11T04:23:56.631Z,0
2018-04-11T04:24:57.206Z,0
2018-04-11T04:25:57.774Z,4
2018-04-11T04:26:58.348Z,4
2018-04-11T04:27:58.914Z,0
2018-04-11T04:28:59.485Z,0
2018-04-11T04:30:00.056Z,4
2018-04-11T04:31:00.627Z,4
2018-04-11T04:32:01.198Z,4
2018-04-11T04:33:01.780Z,4
2018-04-11T04:34:02.349Z,4
2018-04-11T04:35:02.920Z,4
2018-04-11T04:36:03.493Z,4
2018-04-11T04:37:04.064Z,4
2018-04-11T04:38:04.636Z,8
2018-04-11T04:39:05.212Z,8
2018-04-11T04:40:05.778Z,8
2018-04-11T04:41:06.351Z,8
2018-04-11T04:42:06.924Z,8
2018-04-11T04:43:07.504Z,8
2018-04-11T04:44:08.074Z,8
2018-04-11T04:45:08.647Z,12
2018-04-11T04:46:09.220Z,12
2018-04-11T04:47:09.804Z,16
2018-04-11T04:48:10.375Z,12
2018-04-11T04:49:10.947Z,16
2018-04-11T04:50:11.519Z,20
2018-04-11T04:51:12.155Z,20
2018-04-11T04:52:12.664Z,20
2018-04-11T04:53:13.239Z,24
2018-04-11T04:54:13.811Z,24
2018-04-11T04:55:14.383Z,24
2018-04-11T04:56:14.967Z,24
2018-04-11T04:57:15.548Z,28
2018-04-11T04:58:16.122Z,32
2018-04-11T04:59:16.695Z,32
2018-04-11T05:00:17.267Z,32
2018-04-11T05:01:17.839Z,36
2018-04-11T05:02:18.412Z,36
2018-04-11T05:03:18.984Z,40
2018-04-11T05:04:19.561Z,40
2018-04-11T05:05:20.140Z,44
2018-04-11T05:06:20.713Z,44
2018-04-11T05:07:21.284Z,48
2018-04-11T05:08:21.856Z,52
2018-04-11T05:09:22.428Z,52
2018-04-11T05:10:23.001Z,52
2018-04-11T05:11:23.580Z,56
2018-04-11T05:12:24.149Z,56
2018-04-11T05:13:24.721Z,60
2018-04-11T05:14:25.293Z,64
2018-04-11T05:15:25.866Z,64
2018-04-11T05:16:26.449Z,68
2018-04-11T05:17:27.021Z,72
2018-04-11T05:18:27.591Z,72
2018-04-11T05:19:28.162Z,80
2018-04-11T05:20:28.746Z,80
2018-04-11T05:21:29.330Z,80
2018-04-11T05:22:29.905Z,84
2018-04-11T05:23:30.481Z,92
2018-04-11T05:24:31.051Z,92
2018-04-11T05:25:31.623Z,96
2018-04-11T05:26:32.205Z,96
2018-04-11T05:27:32.784Z,100
2018-04-11T05:28:33.365Z,100
2018-04-11T05:29:33.938Z,100
2018-04-11T05:30:34.511Z,104
2018-04-11T05:31:35.083Z,108
2018-04-11T05:32:35.668Z,108
2018-04-11T05:33:36.243Z,112
2018-04-11T05:34:36.815Z,116
2018-04-11T05:35:37.388Z,120
2018-04-11T05:36:37.961Z,124
2018-04-11T05:37:38.545Z,132
2018-04-11T05:38:39.118Z,140
2018-04-11T05:39:39.691Z,148
2018-04-11T05:40:40.265Z,152
2018-04-11T05:41:40.849Z,156
2018-04-11T05:42:41.421Z,160
2018-04-11T05:43:41.995Z,164
2018-04-11T05:44:42.571Z,168
2018-04-11T05:45:43.144Z,172
2018-04-11T05:46:43.719Z,176
2018-04-11T05:47:44.288Z,180
2018-04-11T05:48:44.861Z,184
2018-04-11T05:49:45.436Z,188
2018-04-11T05:50:46.009Z,192
2018-04-11T05:51:46.584Z,196
2018-04-11T05:52:47.168Z,200
2018-04-11T05:53:47.742Z,204
2018-04-11T05:54:48.317Z,208
2018-04-11T05:55:48.889Z,212
2018-04-11T05:56:49.463Z,220
2018-04-11T05:57:50.037Z,224
2018-04-11T05:58:50.650Z,228
2018-04-11T05:59:51.198Z,232
2018-04-11T06:00:51.817Z,248
2018-04-11T06:01:52.348Z,256
2018-04-11T06:02:52.923Z,272
2018-04-11T06:03:53.499Z,276
2018-04-11T06:04:54.073Z,272
2018-04-11T06:05:54.666Z,272
2018-04-11T06:06:55.221Z,280
2018-04-11T06:07:55.801Z,292
2018-04-11T06:08:56.374Z,300
2018-04-11T06:09:56.947Z,304
2018-04-11T06:10:57.520Z,288
2018-04-11T06:11:58.094Z,280
2018-04-11T06:12:58.678Z,292
2018-04-11T06:13:59.252Z,288
2018-04-11T06:14:59.827Z,292
2018-04-11T06:16:00.402Z,296
2018-04-11T06:17:00.999Z,292
2018-04-11T06:18:01.550Z,288
2018-04-11T06:19:02.123Z,296
2018-04-11T06:20:02.714Z,300
2018-04-11T06:21:03.273Z,316
2018-04-11T06:22:03.849Z,332
2018-04-11T06:23:04.483Z,332
2018-04-11T06:24:05.008Z,332
2018-04-11T06:25:05.583Z,348
2018-04-11T06:26:06.210Z,356
2018-04-11T06:27:06.733Z,364
2018-04-11T06:28:07.310Z,368
2018-04-11T06:29:07.881Z,372
2018-04-11T06:30:08.455Z,376
2018-04-11T06:31:09.031Z,376
2018-04-11T06:32:09.605Z,364
2018-04-11T06:33:10.181Z,364
2018-04-11T06:34:10.755Z,368
2018-04-11T06:35:11.330Z,384
2018-04-11T06:36:11.906Z,392
2018-04-11T06:37:12.491Z,392
2018-04-11T06:38:13.068Z,392
2018-04-11T06:39:13.669Z,388
2018-04-11T06:40:14.215Z,384
2018-04-11T06:41:14.791Z,384
2018-04-11T06:42:15.366Z,372
2018-04-11T06:43:15.944Z,360
2018-04-11T06:44:16.515Z,380
2018-04-11T06:45:17.092Z,384
2018-04-11T06:46:17.666Z,388
2018-04-11T06:47:18.266Z,400
2018-04-11T06:48:18.815Z,396
2018-04-11T06:49:19.392Z,396
2018-04-11T06:50:19.968Z,404
2018-04-11T06:51:20.551Z,400
2018-04-11T06:52:21.127Z,412
2018-04-11T06:53:21.712Z,408
2018-04-11T06:54:22.289Z,416
2018-04-11T06:55:22.866Z,436
2018-04-11T06:56:23.448Z,440
2018-04-11T06:57:24.023Z,444
2018-04-11T06:58:24.598Z,448
2018-04-11T06:59:25.171Z,448
2018-04-11T07:00:25.747Z,452
2018-04-11T07:01:26.323Z,444
2018-04-11T07:02:26.899Z,444
2018-04-11T07:03:27.474Z,444
2018-04-11T07:04:28.049Z,428
2018-04-11T07:05:28.633Z,420
2018-04-11T07:06:29.210Z,420
2018-04-11T07:07:29.793Z,428
2018-04-11T07:08:30.367Z,440
2018-04-11T07:09:30.952Z,440
2018-04-11T07:10:31.527Z,440
2018-04-11T07:11:32.101Z,432
2018-04-11T07:12:32.682Z,428
2018-04-11T07:13:33.262Z,424
2018-04-11T07:14:33.837Z,440
2018-04-11T07:15:34.414Z,448
2018-04-11T07:16:34.988Z,456
2018-04-11T07:17:35.575Z,464
2018-04-11T07:18:36.150Z,472
2018-04-11T07:19:36.729Z,476
2018-04-11T07:20:37.301Z,472
2018-04-11T07:21:37.879Z,476
2018-04-11T07:22:38.455Z,472
2018-04-11T07:23:39.029Z,484
2018-04-11T07:24:39.621Z,484
2018-04-11T07:25:40.191Z,500
2018-04-11T07:26:40.765Z,500
2018-04-11T07:27:41.342Z,504
2018-04-11T07:28:41.916Z,500
2018-04-11T07:29:42.491Z,516
2018-04-11T07:30:43.065Z,516
2018-04-11T07:31:43.641Z,512
2018-04-11T07:32:44.221Z,512
2018-04-11T07:33:44.827Z,524
2018-04-11T07:34:45.367Z,480
2018-04-11T07:35:45.942Z,504
2018-04-11T07:36:46.530Z,488
2018-04-11T07:37:47.118Z,512
2018-04-11T07:38:47.695Z,528
2018-04-11T07:39:48.270Z,532
2018-04-11T07:40:48.846Z,536
2018-04-11T07:41:49.421Z,536
2018-04-11T07:42:50.000Z,540
2018-04-11T07:43:50.571Z,544
2018-04-11T07:44:51.158Z,548
2018-04-11T07:45:51.733Z,548
2018-04-11T07:46:52.310Z,552
2018-04-11T07:47:52.884Z,552
2018-04-11T07:48:53.472Z,548
2018-04-11T07:49:54.054Z,544
2018-04-11T07:50:54.633Z,544
2018-04-11T07:51:55.209Z,544
2018-04-11T07:52:55.785Z,548
2018-04-11T07:53:56.363Z,548
2018-04-11T07:54:56.939Z,552
2018-04-11T07:55:57.515Z,552
2018-04-11T07:56:58.092Z,552
2018-04-11T07:57:58.668Z,548
2018-04-11T07:58:59.244Z,552
2018-04-11T07:59:59.823Z,552
2018-04-11T08:01:00.409Z,552
2018-04-11T08:02:00.982Z,552
2018-04-11T08:03:01.560Z,548
2018-04-11T08:04:02.137Z,556
2018-04-11T08:05:02.712Z,564
2018-04-11T08:06:03.288Z,568
2018-04-11T08:07:03.864Z,572
2018-04-11T08:08:04.441Z,568
2018-04-11T08:09:05.017Z,572
2018-04-11T08:10:05.645Z,576
2018-04-11T08:11:06.169Z,576
2018-04-11T08:12:06.749Z,576
2018-04-11T08:13:07.324Z,584
2018-04-11T08:14:07.898Z,588
2018-04-11T08:15:08.476Z,592
2018-04-11T08:16:09.056Z,592
2018-04-11T08:17:09.630Z,592
2018-04-11T08:18:10.263Z,592
2018-04-11T08:19:10.797Z,592
2018-04-11T08:20:11.384Z,592
2018-04-11T08:21:11.963Z,596
2018-04-11T08:22:12.550Z,600
2018-04-11T08:23:13.182Z,600
2018-04-11T08:24:13.717Z,600
2018-04-11T08:25:14.336Z,600
2018-04-11T08:26:14.914Z,600
2018-04-11T08:27:15.489Z,604
2018-04-11T08:28:16.077Z,604
2018-04-11T08:29:16.654Z,604
2018-04-11T08:30:17.237Z,608
2018-04-11T08:31:17.813Z,604
2018-04-11T08:32:18.390Z,608
2018-04-11T08:33:18.977Z,612
2018-04-11T08:34:19.564Z,612
2018-04-11T08:35:20.129Z,616
2018-04-11T08:36:20.706Z,616
2018-04-11T08:37:21.283Z,612
2018-04-11T08:38:21.863Z,620
2018-04-11T08:39:22.436Z,620
2018-04-11T08:40:23.012Z,620
2018-04-11T08:41:23.589Z,620
2018-04-11T08:42:24.166Z,624
2018-04-11T08:43:24.752Z,624
2018-04-11T08:44:25.334Z,620
2018-04-11T08:45:25.928Z,624
2018-04-11T08:46:26.496Z,628
2018-04-11T08:47:27.075Z,632
2018-04-11T08:48:27.652Z,640
2018-04-11T08:49:28.231Z,632
2018-04-11T08:50:28.807Z,632
2018-04-11T08:51:29.384Z,632
2018-04-11T08:52:29.998Z,636
2018-04-11T08:53:30.537Z,636
2018-04-11T08:54:31.116Z,640
2018-04-11T08:55:31.695Z,636
2018-04-11T08:56:32.273Z,644
2018-04-11T08:57:32.850Z,652
2018-04-11T08:58:33.428Z,644
2018-04-11T08:59:34.016Z,652
2018-04-11T09:00:34.597Z,660
2018-04-11T09:01:35.180Z,648
2018-04-11T09:02:35.763Z,608
2018-04-11T09:03:36.335Z,644
2018-04-11T09:04:36.914Z,604
2018-04-11T09:05:37.491Z,528
2018-04-11T09:06:38.069Z,656
2018-04-11T09:07:38.647Z,664
2018-04-11T09:08:39.234Z,668
2018-04-11T09:09:39.814Z,656
2018-04-11T09:10:40.402Z,664
2018-04-11T09:11:40.983Z,672
2018-04-11T09:12:41.559Z,676
2018-04-11T09:13:42.137Z,672
2018-04-11T09:14:42.715Z,668
2018-04-11T09:15:43.292Z,672
2018-04-11T09:16:43.870Z,672
2018-04-11T09:17:44.447Z,680
2018-04-11T09:18:45.024Z,684
2018-04-11T09:19:45.601Z,680
2018-04-11T09:20:46.182Z,688
2018-04-11T09:21:46.758Z,696
2018-04-11T09:22:47.334Z,700
2018-04-11T09:23:47.923Z,712
2018-04-11T09:24:48.511Z,724
2018-04-11T09:25:49.089Z,736
2018-04-11T09:26:49.667Z,740
2018-04-11T09:27:50.245Z,752
2018-04-11T09:28:50.832Z,792
2018-04-11T09:29:51.421Z,828
2018-04-11T09:30:51.999Z,852
2018-04-11T09:31:52.633Z,872
2018-04-11T09:32:53.158Z,888
2018-04-11T09:33:53.736Z,916
2018-04-11T09:34:54.324Z,936
2018-04-11T09:35:54.902Z,952
2018-04-11T09:36:55.480Z,980
2018-04-11T09:37:56.059Z,992
2018-04-11T09:38:56.636Z,992
2018-04-11T09:39:57.220Z,988
2018-04-11T09:40:57.796Z,976
2018-04-11T09:41:58.411Z,1008
2018-04-11T09:42:58.966Z,1012
2018-04-11T09:43:59.540Z,1016
2018-04-11T09:45:00.117Z,1020
2018-04-11T09:46:00.697Z,1024
2018-04-11T09:47:01.281Z,1012
2018-04-11T09:48:01.866Z,1008
2018-04-11T09:49:02.445Z,996
2018-04-11T09:50:03.026Z,964
2018-04-11T09:51:03.605Z,932
2018-04-11T09:52:04.182Z,908
2018-04-11T09:53:04.762Z,884
2018-04-11T09:54:05.341Z,876
2018-04-11T09:55:05.920Z,844
2018-04-11T09:56:06.510Z,656
2018-04-11T09:57:07.088Z,856
2018-04-11T09:58:07.665Z,884
2018-04-11T09:59:08.244Z,788
2018-04-11T10:00:08.823Z,596
2018-04-11T10:01:09.405Z,528
2018-04-11T10:02:09.984Z,520
2018-04-11T10:03:10.560Z,520
2018-04-11T10:04:11.150Z,520
2018-04-11T10:05:11.730Z,496
2018-04-11T10:06:12.318Z,484
2018-04-11T10:07:12.898Z,496
2018-04-11T10:08:13.477Z,528
2018-04-11T10:09:14.057Z,584
2018-04-11T10:10:14.636Z,568
2018-04-11T10:11:15.215Z,736
2018-04-11T10:12:15.794Z,480
2018-04-11T10:13:16.375Z,468
2018-04-11T10:14:16.954Z,468
2018-04-11T10:15:17.535Z,472
2018-04-11T10:16:18.113Z,480
2018-04-11T10:17:18.694Z,540
2018-04-11T10:18:19.275Z,844
2018-04-11T10:19:19.864Z,904
2018-04-11T10:20:20.440Z,920
2018-04-11T10:21:21.019Z,876
2018-04-11T10:22:21.599Z,832
2018-04-11T10:23:22.178Z,856
2018-04-11T10:24:22.767Z,832
2018-04-11T10:25:23.347Z,824
2018-04-11T10:26:23.925Z,836
2018-04-11T10:27:24.506Z,756
2018-04-11T10:28:25.084Z,832
2018-04-11T10:29:25.663Z,608
2018-04-11T10:30:26.251Z,824
2018-04-11T10:31:26.821Z,648
2018-04-11T10:32:27.399Z,752
2018-04-11T10:33:27.977Z,904
2018-04-11T10:34:28.556Z,740
2018-04-11T10:35:29.144Z,920
2018-04-11T10:36:29.724Z,988
2018-04-11T10:37:30.304Z,980
2018-04-11T10:38:30.884Z,900
2018-04-11T10:39:31.461Z,876
2018-04-11T10:40:32.041Z,904
2018-04-11T10:41:32.618Z,752
2018-04-11T10:42:33.197Z,676
2018-04-11T10:43:33.779Z,660
2018-04-11T10:44:34.357Z,904
2018-04-11T10:45:34.936Z,944
2018-04-11T10:46:35.516Z,708
2018-04-11T10:47:36.095Z,876
2018-04-11T10:48:36.675Z,960
2018-04-11T10:49:37.253Z,880
2018-04-11T10:50:37.833Z,884
2018-04-11T10:51:38.423Z,892
2018-04-11T10:52:39.002Z,844
2018-04-11T10:53:39.582Z,804
2018-04-11T10:54:40.171Z,908
2018-04-11T10:55:40.750Z,872
2018-04-11T10:56:41.329Z,792
2018-04-11T10:57:41.908Z,980
2018-04-11T10:58:42.486Z,884
2018-04-11T10:59:43.064Z,792
2018-04-11T11:00:43.646Z,784
2018-04-11T11:01:44.223Z,884
2018-04-11T11:02:44.805Z,1032
2018-04-11T11:03:45.383Z,772
2018-04-11T11:04:45.963Z,708
2018-04-11T11:05:46.544Z,740
2018-04-11T11:06:47.130Z,788
2018-04-11T11:07:47.717Z,836
2018-04-11T11:08:48.307Z,812
2018-04-11T11:09:48.894Z,824
2018-04-11T11:10:49.476Z,832
2018-04-11T11:11:50.055Z,808
2018-04-11T11:12:50.634Z,852
2018-04-11T11:13:51.225Z,764
2018-04-11T11:14:51.802Z,820
2018-04-11T11:15:52.387Z,792
2018-04-11T11:16:52.961Z,820
2018-04-11T11:17:53.544Z,812
2018-04-11T11:18:54.124Z,800
2018-04-11T11:19:54.716Z,800
2018-04-11T11:20:55.292Z,820
2018-04-11T11:21:55.871Z,840
2018-04-11T11:22:56.450Z,904
2018-04-11T11:23:57.042Z,1164
2018-04-11T11:24:57.626Z,1168
2018-04-11T11:25:58.204Z,1220
2018-04-11T11:26:58.786Z,1196
2018-04-11T11:27:59.367Z,1136
2018-04-11T11:28:59.949Z,1056
2018-04-11T11:30:00.527Z,1044
2018-04-11T11:31:01.109Z,964
2018-04-11T11:32:01.688Z,924
2018-04-11T11:33:02.266Z,800
2018-04-11T11:34:02.849Z,808
2018-04-11T11:35:03.432Z,912
2018-04-11T11:36:04.010Z,924
2018-04-11T11:37:04.602Z,896
2018-04-11T11:38:05.180Z,692
2018-04-11T11:39:05.772Z,676
2018-04-11T11:40:06.350Z,924
2018-04-11T11:41:06.933Z,928
2018-04-11T11:42:07.509Z,960
2018-04-11T11:43:08.089Z,916
2018-04-11T11:44:08.669Z,1036
2018-04-11T11:45:09.250Z,1068
2018-04-11T11:46:09.841Z,1076
2018-04-11T11:47:10.425Z,1108
2018-04-11T11:48:11.001Z,864
2018-04-11T11:49:11.581Z,764
2018-04-11T11:50:12.160Z,704
2018-04-11T11:51:12.738Z,664
2018-04-11T11:52:13.319Z,632
2018-04-11T11:53:13.900Z,612
2018-04-11T11:54:14.480Z,620
2018-04-11T11:55:15.060Z,620
2018-04-11T11:56:15.637Z,628
2018-04-11T11:57:16.221Z,628
2018-04-11T11:58:16.810Z,632
2018-04-11T11:59:17.399Z,648
2018-04-11T12:00:17.977Z,660
2018-04-11T12:01:18.557Z,680
2018-04-11T12:02:19.167Z,692
2018-04-11T12:03:19.717Z,688
2018-04-11T12:04:20.296Z,700
2018-04-11T12:05:20.875Z,712
2018-04-11T12:06:21.456Z,724
2018-04-11T12:07:22.033Z,712
2018-04-11T12:08:22.616Z,624
2018-04-11T12:09:23.206Z,488
2018-04-11T12:10:23.786Z,388
2018-04-11T12:11:24.363Z,356
2018-04-11T12:12:24.943Z,364
2018-04-11T12:13:25.523Z,372
2018-04-11T12:14:26.106Z,352
2018-04-11T12:15:26.681Z,328
2018-04-11T12:16:27.263Z,328
2018-04-11T12:17:27.850Z,352
2018-04-11T12:18:28.431Z,392
2018-04-11T12:19:29.069Z,432
2018-04-11T12:20:29.593Z,472
2018-04-11T12:21:30.170Z,520
2018-04-11T12:22:30.751Z,568
2018-04-11T12:23:31.331Z,608
2018-04-11T12:24:31.911Z,644
2018-04-11T12:25:32.493Z,656
2018-04-11T12:26:33.071Z,656
2018-04-11T12:27:33.651Z,656
2018-04-11T12:28:34.231Z,672
2018-04-11T12:29:34.865Z,684
2018-04-11T12:30:35.399Z,688
2018-04-11T12:31:35.979Z,680
2018-04-11T12:32:36.558Z,664
2018-04-11T12:33:37.137Z,628
2018-04-11T12:34:37.717Z,592
2018-04-11T12:35:38.296Z,576
2018-04-11T12:36:38.875Z,564
2018-04-11T12:37:39.453Z,560
2018-04-11T12:38:40.034Z,548
2018-04-11T12:39:40.624Z,532
2018-04-11T12:40:41.212Z,508
2018-04-11T12:41:41.791Z,484
2018-04-11T12:42:42.368Z,464
2018-04-11T12:43:42.952Z,440
2018-04-11T12:44:43.537Z,420
2018-04-11T12:45:44.116Z,400
2018-04-11T12:46:44.695Z,380
2018-04-11T12:47:45.276Z,360
2018-04-11T12:48:45.853Z,340
2018-04-11T12:49:46.430Z,328
2018-04-11T12:50:47.009Z,308
2018-04-11T12:51:47.590Z,296
2018-04-11T12:52:48.170Z,288
2018-04-11T12:53:48.749Z,292
2018-04-11T12:54:49.329Z,308
2018-04-11T12:55:49.906Z,336
2018-04-11T12:56:50.485Z,376
2018-04-11T12:57:51.063Z,416
2018-04-11T12:58:51.639Z,448
2018-04-11T12:59:52.220Z,488
2018-04-11T13:00:52.797Z,540
2018-04-11T13:01:53.376Z,612
2018-04-11T13:02:53.954Z,784
2018-04-11T13:03:54.541Z,1084
2018-04-11T13:04:55.120Z,1228
2018-04-11T13:05:55.707Z,1116
2018-04-11T13:06:56.286Z,1240
2018-04-11T13:07:56.864Z,1284
2018-04-11T13:08:57.443Z,1116
2018-04-11T13:09:58.024Z,1296
2018-04-11T13:10:58.606Z,1320
2018-04-11T13:11:59.185Z,1128
2018-04-11T13:12:59.769Z,1080
2018-04-11T13:14:00.347Z,1072
2018-04-11T13:15:00.971Z,1024
2018-04-11T13:16:01.505Z,1024
2018-04-11T13:17:02.088Z,1128
2018-04-11T13:18:02.680Z,1208
2018-04-11T13:19:03.281Z,1140
2018-04-11T13:20:03.851Z,1056
2018-04-11T13:21:04.432Z,1112
2018-04-11T13:22:05.022Z,1244
2018-04-11T13:23:05.601Z,1348
2018-04-11T13:24:06.184Z,1520
2018-04-11T13:25:06.763Z,1468
2018-04-11T13:26:07.343Z,1616
2018-04-11T13:27:07.925Z,1656
2018-04-11T13:28:08.505Z,1656
2018-04-11T13:29:09.085Z,1596
2018-04-11T13:30:09.668Z,1508
2018-04-11T13:31:10.265Z,1396
2018-04-11T13:32:10.854Z,1360
2018-04-11T13:33:11.430Z,1276
2018-04-11T13:34:12.010Z,1344
2018-04-11T13:35:12.589Z,1284
2018-04-11T13:36:13.172Z,1136
2018-04-11T13:37:13.752Z,1120
2018-04-11T13:38:14.332Z,1084
2018-04-11T13:39:14.913Z,1024
2018-04-11T13:40:15.495Z,1000
2018-04-11T13:41:16.077Z,976
2018-04-11T13:42:16.665Z,964
2018-04-11T13:43:17.245Z,964
2018-04-11T13:44:17.824Z,1000
2018-04-11T13:45:18.405Z,940
2018-04-11T13:46:18.983Z,932
2018-04-11T13:47:19.563Z,924
2018-04-11T13:48:20.141Z,908
2018-04-11T13:49:20.722Z,880
2018-04-11T13:50:21.302Z,856
2018-04-11T13:51:21.883Z,836
2018-04-11T13:52:22.462Z,808
2018-04-11T13:53:23.044Z,800
2018-04-11T13:54:23.621Z,800
2018-04-11T13:55:24.202Z,816
2018-04-11T13:56:24.814Z,836
2018-04-11T13:57:25.363Z,884
2018-04-11T13:58:25.945Z,900
2018-04-11T13:59:26.525Z,908
2018-04-11T14:00:27.106Z,892
2018-04-11T14:01:27.698Z,828
2018-04-11T14:02:28.301Z,772
2018-04-11T14:03:28.866Z,716
2018-04-11T14:04:29.444Z,660
2018-04-11T14:05:30.026Z,596
2018-04-11T14:06:30.604Z,568
2018-04-11T14:07:31.183Z,560
2018-04-11T14:08:31.771Z,556
2018-04-11T14:09:32.349Z,540
2018-04-11T14:10:32.931Z,516
2018-04-11T14:11:33.512Z,496
2018-04-11T14:12:34.090Z,480